createdAt,value
2023-08-25T00:00:18.113Z,38.81
2023-08-25T00:02:44.581Z,38.37
2023-08-25T00:05:11.045Z,38.47
2023-08-25T00:07:37.592Z,38.58
2023-08-25T00:10:04.052Z,38.68
2023-08-25T00:12:30.497Z,38.75
2023-08-25T00:14:56.930Z,38.88
2023-08-25T00:17:23.345Z,39.40
2023-08-25T00:19:49.788Z,39.44
2023-08-25T00:22:16.212Z,39.44
2023-08-25T00:24:42.690Z,39.81
2023-08-25T00:27:09.130Z,40.22
2023-08-25T00:29:35.583Z,40.07
2023-08-25T00:32:02.033Z,40.30
2023-08-25T00:34:28.479Z,40.33
2023-08-25T00:36:54.904Z,40.90
2023-08-25T00:39:21.327Z,40.53
2023-08-25T00:41:47.797Z,40.45
2023-08-25T00:44:14.262Z,40.67
2023-08-25T00:46:40.757Z,42.19
2023-08-25T00:49:07.191Z,42.08
2023-08-25T00:51:33.623Z,42.65
2023-08-25T00:54:00.060Z,43.30
2023-08-25T00:56:26.496Z,44.12
2023-08-25T00:58:52.908Z,44.02
2023-08-25T01:01:19.427Z,43.84
2023-08-25T01:03:45.997Z,43.37
2023-08-25T01:06:12.418Z,43.08
2023-08-25T01:08:38.862Z,42.65
2023-08-25T01:11:05.379Z,42.90
2023-08-25T01:13:31.938Z,42.11
2023-08-25T01:15:58.373Z,42.36
2023-08-25T01:18:24.869Z,42.05
2023-08-25T01:20:51.300Z,42.30
2023-08-25T01:23:17.732Z,42.00
2023-08-25T01:25:44.159Z,42.22
2023-08-25T01:28:10.632Z,42.67
2023-08-25T01:30:37.131Z,42.63
2023-08-25T01:33:03.590Z,42.55
2023-08-25T01:35:30.049Z,42.73
2023-08-25T01:37:56.468Z,42.94
2023-08-25T01:40:22.885Z,42.40
2023-08-25T01:42:49.320Z,42.75
2023-08-25T01:45:15.762Z,41.47
2023-08-25T01:47:42.226Z,40.95
2023-08-25T01:50:08.708Z,41.43
2023-08-25T01:52:35.170Z,40.43
2023-08-25T01:55:01.622Z,40.03
2023-08-25T01:57:28.037Z,40.12
2023-08-25T01:59:54.485Z,38.83
2023-08-25T02:02:20.959Z,39.95
2023-08-25T02:04:47.397Z,40.04
2023-08-25T02:07:13.843Z,39.88
2023-08-25T02:09:40.257Z,40.35
2023-08-25T02:12:06.705Z,40.03
2023-08-25T02:14:33.127Z,39.93
2023-08-25T02:16:59.578Z,39.86
2023-08-25T02:19:25.999Z,39.29
2023-08-25T02:21:52.491Z,39.49
2023-08-25T02:24:18.939Z,39.63
2023-08-25T02:26:45.374Z,39.58
2023-08-25T02:29:11.828Z,39.82
2023-08-25T02:31:38.310Z,40.17
2023-08-25T02:34:04.775Z,40.04
2023-08-25T02:36:31.246Z,39.96
2023-08-25T02:38:57.679Z,40.21
2023-08-25T02:41:24.115Z,40.19
2023-08-25T02:43:50.552Z,40.39
2023-08-25T02:46:17.034Z,40.35
2023-08-25T02:48:43.508Z,40.75
2023-08-25T02:51:09.965Z,40.60
2023-08-25T02:53:36.385Z,40.53
2023-08-25T02:56:02.829Z,40.97
2023-08-25T02:58:29.289Z,40.99
2023-08-25T03:00:55.696Z,41.13
2023-08-25T03:03:22.198Z,40.97
2023-08-25T03:05:48.686Z,41.32
2023-08-25T03:08:15.097Z,41.21
2023-08-25T03:10:41.553Z,40.83
2023-08-25T03:13:09.059Z,40.64
2023-08-25T03:15:35.600Z,40.42
2023-08-25T03:18:02.097Z,40.67
2023-08-25T03:20:28.537Z,40.50
2023-08-25T03:22:55.000Z,40.01
2023-08-25T03:25:21.421Z,39.91
2023-08-25T03:27:47.912Z,39.99
2023-08-25T03:30:14.358Z,40.42
2023-08-25T03:32:40.845Z,40.90
2023-08-25T03:35:07.385Z,40.80
2023-08-25T03:37:33.821Z,41.06
2023-08-25T03:40:00.278Z,41.28
2023-08-25T03:42:26.728Z,41.54
2023-08-25T03:44:53.183Z,41.37
2023-08-25T03:47:19.588Z,41.17
2023-08-25T03:49:46.089Z,41.13
2023-08-25T03:52:12.524Z,41.06
2023-08-25T03:54:39.022Z,40.29
2023-08-25T03:57:05.480Z,40.51
2023-08-25T03:59:31.909Z,39.85
2023-08-25T04:01:58.344Z,40.07
2023-08-25T04:04:24.778Z,40.36
2023-08-25T04:06:51.232Z,39.86
2023-08-25T04:09:17.679Z,39.68
2023-08-25T04:11:44.113Z,40.50
2023-08-25T04:14:10.554Z,40.39
2023-08-25T04:16:37.024Z,40.81
2023-08-25T04:19:03.552Z,40.61
2023-08-25T04:21:30.006Z,41.10
2023-08-25T04:23:56.472Z,41.13
2023-08-25T04:26:22.896Z,40.97
2023-08-25T04:28:49.332Z,41.02
2023-08-25T04:31:15.786Z,41.30
2023-08-25T04:33:43.135Z,40.97
2023-08-25T04:36:09.714Z,41.31
2023-08-25T04:38:36.200Z,41.43
2023-08-25T04:41:02.634Z,41.56
2023-08-25T04:43:29.109Z,41.20
2023-08-25T04:45:55.556Z,41.25
2023-08-25T04:48:21.991Z,41.78
2023-08-25T04:50:48.433Z,41.74
2023-08-25T04:53:14.850Z,41.60
2023-08-25T04:55:41.290Z,41.31
2023-08-25T04:58:07.701Z,41.43
2023-08-25T05:00:34.209Z,41.53
2023-08-25T05:03:00.780Z,41.17
2023-08-25T05:05:27.282Z,42.39
2023-08-25T05:07:53.869Z,42.87
2023-08-25T05:10:20.527Z,44.80
2023-08-25T05:12:46.956Z,43.86
2023-08-25T05:15:13.373Z,43.95
2023-08-25T05:17:39.819Z,44.63
2023-08-25T05:20:06.239Z,44.97
2023-08-25T05:22:32.716Z,44.40
2023-08-25T05:25:00.305Z,43.60
2023-08-25T05:27:26.739Z,42.75
2023-08-25T05:29:53.157Z,42.52
2023-08-25T05:32:19.645Z,43.52
2023-08-25T05:34:46.066Z,47.99
2023-08-25T05:37:12.546Z,49.81
2023-08-25T05:39:38.995Z,52.91
2023-08-25T05:42:05.421Z,54.96
2023-08-25T05:44:31.863Z,54.64
2023-08-25T05:46:58.310Z,54.09
2023-08-25T05:49:24.783Z,53.27
2023-08-25T05:51:51.204Z,52.65
2023-08-25T05:54:17.635Z,53.52
2023-08-25T05:56:44.124Z,52.41
2023-08-25T05:59:10.558Z,51.60
2023-08-25T06:01:37.095Z,51.15
2023-08-25T06:04:03.620Z,50.46
2023-08-25T06:06:30.070Z,49.47
2023-08-25T06:08:56.561Z,48.91
2023-08-25T06:11:23.001Z,47.61
2023-08-25T06:13:49.424Z,46.33
2023-08-25T06:16:15.894Z,45.08
2023-08-25T06:18:42.387Z,43.79
2023-08-25T06:21:08.830Z,43.18
2023-08-25T06:23:35.306Z,42.08
2023-08-25T06:26:01.739Z,40.71
2023-08-25T06:28:28.159Z,39.07
2023-08-25T06:30:54.620Z,38.20
2023-08-25T06:33:21.043Z,37.90
2023-08-25T06:35:47.462Z,37.72
2023-08-25T06:38:13.918Z,38.10
2023-08-25T06:40:40.421Z,38.68
2023-08-25T06:43:06.925Z,38.75
2023-08-25T06:45:33.392Z,39.95
2023-08-25T06:47:59.901Z,39.33
2023-08-25T06:50:26.422Z,39.04
2023-08-25T06:52:52.852Z,39.85
2023-08-25T06:55:19.316Z,39.72
2023-08-25T06:57:45.799Z,40.00
2023-08-25T07:00:12.228Z,40.54
2023-08-25T07:02:38.652Z,40.29
2023-08-25T07:05:05.103Z,41.32
2023-08-25T07:07:31.543Z,41.13
2023-08-25T07:09:57.992Z,42.09
2023-08-25T07:12:24.427Z,41.35
2023-08-25T07:14:50.859Z,46.44
2023-08-25T07:17:17.311Z,45.79
2023-08-25T07:19:43.747Z,45.49
2023-08-25T07:22:10.185Z,44.73
2023-08-25T07:24:36.655Z,45.31
2023-08-25T07:27:03.077Z,50.21
2023-08-25T07:29:29.512Z,48.44
2023-08-25T07:31:55.944Z,44.14
2023-08-25T07:34:22.363Z,43.12
2023-08-25T07:36:48.805Z,43.19
2023-08-25T07:39:15.260Z,42.02
2023-08-25T07:41:41.699Z,41.68
2023-08-25T07:44:08.139Z,40.04
2023-08-25T07:46:34.638Z,39.07
2023-08-25T07:49:01.096Z,39.38
2023-08-25T07:51:39.648Z,41.26
2023-08-25T07:54:07.316Z,40.78
2023-08-25T07:56:33.749Z,40.40
2023-08-25T07:59:00.237Z,39.73
2023-08-25T08:01:26.708Z,40.20
2023-08-25T08:03:53.222Z,40.26
2023-08-25T08:06:19.688Z,40.33
2023-08-25T08:08:46.168Z,40.59
2023-08-25T08:11:12.608Z,41.32
2023-08-25T08:13:39.112Z,41.78
2023-08-25T08:16:05.537Z,42.32
2023-08-25T08:18:32.005Z,41.79
2023-08-25T08:20:58.425Z,42.20
2023-08-25T08:23:24.844Z,42.74
2023-08-25T08:25:51.300Z,42.98
2023-08-25T08:28:17.724Z,44.30
2023-08-25T08:30:45.366Z,46.25
2023-08-25T08:33:12.949Z,45.34
2023-08-25T08:35:39.385Z,44.40
2023-08-25T08:38:05.831Z,45.22
2023-08-25T08:40:32.276Z,45.35
2023-08-25T08:42:58.759Z,43.86
2023-08-25T08:45:25.199Z,43.53
2023-08-25T08:47:51.913Z,44.24
2023-08-25T08:50:18.579Z,44.41
2023-08-25T08:52:44.985Z,43.58
2023-08-25T08:55:11.441Z,42.24
2023-08-25T08:57:37.881Z,42.89
2023-08-25T09:00:04.379Z,44.61
2023-08-25T09:02:30.845Z,44.02
2023-08-25T09:04:57.364Z,43.36
2023-08-25T09:07:25.941Z,44.14
2023-08-25T09:09:52.393Z,44.19
2023-08-25T09:12:18.844Z,44.14
2023-08-25T09:14:45.344Z,42.85
2023-08-25T09:17:11.802Z,44.96
2023-08-25T09:19:38.249Z,44.68
2023-08-25T09:22:04.690Z,46.00
2023-08-25T09:24:31.125Z,46.66
2023-08-25T09:26:57.544Z,47.23
2023-08-25T09:29:24.001Z,45.63
2023-08-25T09:31:50.430Z,46.54
2023-08-25T09:34:16.925Z,46.32
2023-08-25T09:36:43.341Z,45.49
2023-08-25T09:39:09.787Z,44.47
2023-08-25T09:41:36.329Z,44.30
2023-08-25T09:44:02.919Z,45.20
2023-08-25T09:46:29.363Z,45.77
2023-08-25T09:48:55.858Z,45.91
2023-08-25T09:51:22.327Z,45.05
2023-08-25T09:53:48.781Z,43.28
2023-08-25T09:56:18.212Z,43.51
2023-08-25T09:58:46.160Z,42.51
2023-08-25T10:01:12.628Z,41.90
2023-08-25T10:03:39.123Z,41.33
2023-08-25T10:06:05.564Z,40.97
2023-08-25T10:08:32.077Z,39.55
2023-08-25T10:10:58.521Z,40.26
2023-08-25T10:13:24.970Z,39.34
2023-08-25T10:15:51.426Z,40.27
2023-08-25T10:18:18.006Z,39.76
2023-08-25T10:20:44.553Z,39.25
2023-08-25T10:23:11.010Z,38.10
2023-08-25T10:25:37.439Z,38.69
2023-08-25T10:28:03.874Z,37.95
2023-08-25T10:30:30.307Z,37.53
2023-08-25T10:32:56.790Z,36.44
2023-08-25T10:35:23.274Z,36.09
2023-08-25T10:37:49.726Z,35.45
2023-08-25T10:40:16.193Z,35.73
2023-08-25T10:42:42.613Z,34.79
2023-08-25T10:45:09.076Z,35.24
2023-08-25T10:47:35.602Z,34.33
2023-08-25T10:50:02.198Z,32.83
2023-08-25T10:52:28.615Z,33.45
2023-08-25T10:54:55.074Z,32.23
2023-08-25T10:57:21.570Z,31.87
2023-08-25T10:59:49.374Z,32.90
2023-08-25T11:02:15.815Z,31.67
2023-08-25T11:04:42.407Z,32.83
2023-08-25T11:07:08.950Z,33.19
2023-08-25T11:09:35.693Z,33.39
2023-08-25T11:12:02.145Z,33.55
2023-08-25T11:14:28.629Z,32.98
2023-08-25T11:16:55.066Z,32.86
2023-08-25T11:19:21.513Z,33.41
2023-08-25T11:21:49.598Z,33.10
2023-08-25T11:24:17.313Z,34.04
2023-08-25T11:26:43.788Z,34.02
2023-08-25T11:29:10.285Z,33.10
2023-08-25T11:31:36.724Z,34.20
2023-08-25T11:34:03.177Z,33.80
2023-08-25T11:36:29.614Z,34.02
2023-08-25T11:38:56.046Z,35.30
2023-08-25T11:41:22.464Z,36.39
2023-08-25T11:43:48.909Z,38.39
2023-08-25T11:46:15.396Z,38.54
2023-08-25T11:48:41.965Z,39.28
2023-08-25T11:51:08.407Z,39.78
2023-08-25T11:53:34.843Z,40.23
2023-08-25T11:56:01.453Z,39.76
2023-08-25T11:58:27.911Z,39.74
2023-08-25T12:00:54.429Z,41.51
2023-08-25T12:03:20.966Z,48.91
2023-08-25T12:05:47.445Z,51.58
2023-08-25T12:08:13.856Z,50.25
2023-08-25T12:10:40.505Z,49.50
2023-08-25T12:13:07.125Z,50.83
2023-08-25T12:15:33.606Z,50.89
2023-08-25T12:18:00.183Z,49.86
2023-08-25T12:20:26.754Z,48.94
2023-08-25T12:22:53.180Z,49.77
2023-08-25T12:25:19.607Z,51.88
2023-08-25T12:27:46.033Z,51.29
2023-08-25T12:30:12.491Z,50.00
2023-08-25T12:32:39.037Z,50.32
2023-08-25T12:35:05.492Z,49.87
2023-08-25T12:37:31.902Z,49.10
2023-08-25T12:39:58.299Z,47.83
2023-08-25T12:42:24.726Z,47.63
2023-08-25T12:44:51.206Z,46.36
2023-08-25T12:47:17.664Z,45.84
2023-08-25T12:49:44.078Z,44.36
2023-08-25T12:52:10.554Z,42.85
2023-08-25T12:54:36.996Z,43.50
2023-08-25T12:57:03.431Z,42.10
2023-08-25T12:59:29.900Z,42.31
2023-08-25T13:01:56.323Z,42.09
2023-08-25T13:04:22.757Z,40.54
2023-08-25T13:06:49.170Z,38.75
2023-08-25T13:09:15.657Z,37.76
2023-08-25T13:11:42.151Z,36.66
2023-08-25T13:14:08.611Z,34.78
2023-08-25T13:16:35.067Z,32.58
2023-08-25T13:19:01.513Z,31.03
2023-08-25T13:21:27.941Z,31.18
2023-08-25T13:24:07.913Z,31.03
2023-08-25T13:26:35.928Z,32.83
2023-08-25T13:29:02.384Z,35.30
2023-08-25T13:31:29.205Z,36.24
2023-08-25T13:33:56.189Z,34.52
2023-08-25T13:36:23.299Z,34.59
2023-08-25T13:38:49.789Z,34.45
2023-08-25T13:41:16.201Z,36.53
2023-08-25T13:43:42.673Z,36.19
2023-08-25T13:46:09.152Z,34.97
2023-08-25T13:48:35.612Z,33.81
2023-08-25T13:51:02.049Z,31.96
2023-08-25T13:53:28.477Z,30.28
2023-08-25T13:55:55.380Z,29.52
2023-08-25T13:58:22.290Z,29.51
2023-08-25T14:00:48.707Z,28.52
2023-08-25T14:03:15.292Z,27.77
2023-08-25T14:05:41.846Z,28.01
2023-08-25T14:08:08.313Z,25.33
2023-08-25T14:10:34.747Z,26.15
2023-08-25T14:13:01.191Z,25.87
2023-08-25T14:15:27.617Z,26.24
2023-08-25T14:17:54.283Z,26.97
2023-08-25T14:20:21.033Z,27.28
2023-08-25T14:22:47.584Z,26.59
2023-08-25T14:25:13.999Z,26.81
2023-08-25T14:27:40.421Z,28.70
2023-08-25T14:30:06.851Z,32.34
2023-08-25T14:32:33.281Z,32.88
2023-08-25T14:34:59.730Z,32.89
2023-08-25T14:37:26.145Z,34.30
2023-08-25T14:39:52.572Z,33.38
2023-08-25T14:42:19.017Z,33.26
2023-08-25T14:44:45.440Z,33.38
2023-08-25T14:47:11.880Z,33.54
2023-08-25T14:49:38.397Z,32.61
2023-08-25T14:52:04.963Z,33.20
2023-08-25T14:54:31.395Z,35.10
2023-08-25T14:56:57.846Z,34.65
2023-08-25T14:59:26.567Z,35.28
2023-08-25T15:01:54.110Z,34.29
2023-08-25T15:04:20.542Z,32.42
2023-08-25T15:06:46.986Z,32.99
2023-08-25T15:09:13.405Z,33.40
2023-08-25T15:11:39.845Z,32.89
2023-08-25T15:14:06.276Z,30.85
2023-08-25T15:16:32.706Z,29.49
2023-08-25T15:18:59.151Z,29.31
2023-08-25T15:21:25.618Z,29.03
2023-08-25T15:23:52.044Z,28.38
2023-08-25T15:26:18.458Z,27.56
2023-08-25T15:28:44.980Z,29.31
2023-08-25T15:31:11.571Z,29.05
2023-08-25T15:33:38.132Z,28.05
2023-08-25T15:36:04.569Z,28.33
2023-08-25T15:38:31.003Z,28.09
2023-08-25T15:40:57.436Z,27.87
2023-08-25T15:43:23.854Z,28.21
2023-08-25T15:45:50.315Z,27.99
2023-08-25T15:48:16.759Z,27.79
2023-08-25T15:50:43.185Z,27.71
2023-08-25T15:53:09.637Z,27.96
2023-08-25T15:55:36.088Z,28.18
2023-08-25T15:58:02.517Z,28.53
2023-08-25T16:00:28.936Z,28.76
2023-08-25T16:02:55.618Z,30.90
2023-08-25T16:05:22.351Z,29.98
2023-08-25T16:07:48.822Z,30.54
2023-08-25T16:10:15.363Z,30.50
2023-08-25T16:12:41.850Z,30.90
2023-08-25T16:15:08.277Z,30.88
2023-08-25T16:17:34.719Z,31.24
2023-08-25T16:20:01.293Z,32.94
2023-08-25T16:22:27.744Z,33.19
2023-08-25T16:24:54.817Z,33.89
2023-08-25T16:27:21.269Z,34.00
2023-08-25T16:29:47.742Z,35.54
2023-08-25T16:32:14.153Z,34.69
2023-08-25T16:34:40.624Z,34.49
2023-08-25T16:37:07.063Z,34.38
2023-08-25T16:39:33.509Z,34.94
2023-08-25T16:41:59.965Z,34.69
2023-08-25T16:44:26.398Z,35.50
2023-08-25T16:46:52.872Z,35.04
2023-08-25T16:49:19.396Z,35.10
2023-08-25T16:51:45.841Z,35.73
2023-08-25T16:54:12.274Z,35.59
2023-08-25T16:56:38.832Z,35.78
2023-08-25T16:59:05.277Z,35.51
2023-08-25T17:01:31.750Z,36.76
2023-08-25T17:03:58.398Z,36.98
2023-08-25T17:06:24.916Z,36.94
2023-08-25T17:08:51.375Z,36.29
2023-08-25T17:11:17.854Z,36.91
2023-08-25T17:13:44.274Z,36.31
2023-08-25T17:16:10.789Z,36.03
2023-08-25T17:18:37.348Z,35.59
2023-08-25T17:21:03.789Z,35.84
2023-08-25T17:23:30.257Z,34.96
2023-08-25T17:25:56.704Z,36.01
2023-08-25T17:28:23.141Z,35.25
2023-08-25T17:30:49.655Z,35.13
2023-08-25T17:33:16.126Z,34.68
2023-08-25T17:35:42.550Z,35.87
2023-08-25T17:38:08.952Z,36.17
2023-08-25T17:40:35.411Z,35.66
2023-08-25T17:43:01.824Z,37.41
2023-08-25T17:45:28.270Z,35.40
2023-08-25T17:47:54.754Z,35.62
2023-08-25T17:50:21.284Z,36.25
2023-08-25T17:52:47.767Z,34.98
2023-08-25T17:55:15.932Z,35.50
2023-08-25T17:57:43.523Z,34.81
2023-08-25T18:00:09.966Z,35.02
2023-08-25T18:02:36.470Z,35.23
2023-08-25T18:05:02.923Z,34.10
2023-08-25T18:07:29.442Z,34.78
2023-08-25T18:09:55.847Z,35.41
2023-08-25T18:12:22.327Z,36.33
2023-08-25T18:14:48.816Z,36.46
2023-08-25T18:17:15.238Z,36.75
2023-08-25T18:19:41.666Z,36.97
2023-08-25T18:22:08.150Z,36.79
2023-08-25T18:24:34.579Z,36.38
2023-08-25T18:27:01.013Z,36.44
2023-08-25T18:29:27.487Z,36.69
2023-08-25T18:31:53.989Z,36.67
2023-08-25T18:34:20.467Z,36.63
2023-08-25T18:36:46.938Z,36.68
2023-08-25T18:39:13.392Z,37.71
2023-08-25T18:41:39.816Z,37.45
2023-08-25T18:44:06.257Z,36.86
2023-08-25T18:46:32.688Z,38.55
2023-08-25T18:48:59.128Z,38.41
2023-08-25T18:51:27.049Z,38.60
2023-08-25T18:53:53.628Z,40.18
2023-08-25T18:56:20.123Z,40.45
2023-08-25T18:58:46.558Z,41.25
2023-08-25T19:01:13.113Z,40.99
2023-08-25T19:03:39.645Z,41.67
2023-08-25T19:06:06.177Z,42.64
2023-08-25T19:08:32.661Z,44.41
2023-08-25T19:10:59.167Z,44.59
2023-08-25T19:13:25.623Z,44.70
2023-08-25T19:15:52.110Z,44.76
2023-08-25T19:18:18.599Z,48.81
2023-08-25T19:20:45.086Z,48.17
2023-08-25T19:23:11.549Z,49.33
2023-08-25T19:25:38.018Z,50.31
2023-08-25T19:28:04.551Z,51.66
2023-08-25T19:30:31.005Z,51.10
2023-08-25T19:32:58.034Z,49.65
2023-08-25T19:35:24.811Z,48.46
2023-08-25T19:37:51.329Z,44.39
2023-08-25T19:40:17.904Z,43.71
2023-08-25T19:42:44.441Z,42.78
2023-08-25T19:45:10.911Z,42.76
2023-08-25T19:47:37.420Z,42.57
2023-08-25T19:50:03.931Z,41.35
2023-08-25T19:52:30.413Z,42.55
2023-08-25T19:54:56.924Z,43.72
2023-08-25T19:57:23.436Z,43.21
2023-08-25T19:59:49.914Z,42.90
2023-08-25T20:02:16.443Z,42.19
2023-08-25T20:04:42.972Z,42.12
2023-08-25T20:07:09.404Z,42.10
2023-08-25T20:09:35.921Z,42.27
2023-08-25T20:12:02.384Z,41.90
2023-08-25T20:14:28.813Z,42.61
2023-08-25T20:16:55.392Z,42.04
2023-08-25T20:19:21.843Z,43.30
2023-08-25T20:21:48.291Z,43.03
2023-08-25T20:24:14.783Z,43.02
2023-08-25T20:26:41.256Z,43.31
2023-08-25T20:29:07.704Z,43.37
2023-08-25T20:31:34.202Z,43.54
2023-08-25T20:34:00.629Z,43.55
2023-08-25T20:36:27.086Z,43.89
2023-08-25T20:38:53.727Z,44.66
2023-08-25T20:41:20.211Z,44.43
2023-08-25T20:43:46.633Z,43.83
2023-08-25T20:46:13.135Z,43.59
2023-08-25T20:48:39.658Z,43.04
2023-08-25T20:51:06.108Z,43.00
2023-08-25T20:53:32.560Z,42.49
2023-08-25T20:55:58.985Z,42.59
2023-08-25T20:58:25.459Z,42.83
2023-08-25T21:00:51.907Z,41.91
2023-08-25T21:03:18.592Z,42.13
2023-08-25T21:05:45.255Z,41.45
2023-08-25T21:08:11.705Z,42.85
2023-08-25T21:10:38.138Z,43.43
2023-08-25T21:13:04.651Z,43.26
2023-08-25T21:15:31.090Z,43.29
2023-08-25T21:17:57.603Z,43.54
2023-08-25T21:20:26.149Z,44.40
2023-08-25T21:22:54.172Z,45.53
2023-08-25T21:25:20.872Z,46.21
2023-08-25T21:27:47.360Z,47.81
2023-08-25T21:30:13.846Z,49.26
2023-08-25T21:32:40.360Z,49.19
2023-08-25T21:35:06.807Z,48.82
2023-08-25T21:37:33.270Z,48.28
2023-08-25T21:39:59.677Z,48.02
2023-08-25T21:42:26.118Z,48.27
2023-08-25T21:44:52.533Z,47.93
2023-08-25T21:47:19.003Z,48.51
2023-08-25T21:49:45.427Z,48.85
2023-08-25T21:52:11.883Z,50.42
2023-08-25T21:54:38.350Z,51.22
2023-08-25T21:57:04.867Z,50.94
2023-08-25T21:59:31.336Z,50.67
2023-08-25T22:01:57.795Z,52.15
2023-08-25T22:04:24.297Z,54.13
2023-08-25T22:06:50.807Z,54.32
2023-08-25T22:09:17.233Z,55.41
2023-08-25T22:11:43.657Z,56.68
2023-08-25T22:14:10.126Z,56.89
2023-08-25T22:16:36.552Z,58.65
2023-08-25T22:19:02.986Z,59.39
2023-08-25T22:21:29.437Z,59.65
2023-08-25T22:23:55.879Z,59.06
2023-08-25T22:26:22.356Z,58.25
2023-08-25T22:28:48.789Z,58.89
2023-08-25T22:31:15.263Z,59.56
2023-08-25T22:36:11.017Z,58.34
2023-08-25T22:38:37.438Z,58.46
2023-08-25T22:41:03.945Z,58.76
2023-08-25T22:43:30.368Z,57.92
2023-08-25T22:45:56.824Z,56.56
2023-08-25T22:48:23.273Z,57.12
2023-08-25T22:50:52.144Z,56.53
2023-08-25T22:53:18.584Z,55.59
2023-08-25T22:55:45.051Z,55.87
2023-08-25T22:58:11.526Z,55.48
2023-08-25T23:00:38.101Z,55.11
2023-08-25T23:03:04.692Z,55.08
2023-08-25T23:05:31.184Z,53.85
2023-08-25T23:07:57.775Z,53.47
2023-08-25T23:10:24.395Z,54.09
2023-08-25T23:12:50.839Z,53.79
2023-08-25T23:15:17.253Z,52.13
2023-08-25T23:17:43.732Z,52.49
2023-08-25T23:20:10.171Z,52.88
2023-08-25T23:22:36.624Z,52.28
2023-08-25T23:25:03.094Z,53.34
2023-08-25T23:27:29.520Z,54.28
2023-08-25T23:29:55.962Z,54.35
2023-08-25T23:32:22.420Z,54.67
2023-08-25T23:34:48.887Z,54.49
2023-08-25T23:37:15.327Z,54.85
2023-08-25T23:39:41.780Z,54.79
2023-08-25T23:42:08.207Z,55.36
2023-08-25T23:44:34.642Z,55.02
2023-08-25T23:47:01.057Z,55.11
2023-08-25T23:49:27.492Z,55.11
2023-08-25T23:51:53.924Z,55.41
2023-08-25T23:54:20.389Z,55.10
2023-08-25T23:56:46.826Z,54.76
2023-08-25T23:59:13.363Z,55.21
